sensor_id;sensor_type;location;lat;lon;timestamp;P1;durP1;ratioP1;P2;durP2;ratioP2
12585;SDS011;6358;50.760;0.282;2024-02-21T00:00:55;4.73;;;1.43;;
12585;SDS011;6358;50.760;0.282;2024-02-21T00:03:22;2.97;;;1.30;;
12585;SDS011;6358;50.760;0.282;2024-02-21T00:05:48;3.13;;;1.60;;
12585;SDS011;6358;50.760;0.282;2024-02-21T00:08:14;3.20;;;1.40;;
12585;SDS011;6358;50.760;0.282;2024-02-21T00:10:40;3.37;;;1.37;;
12585;SDS011;6358;50.760;0.282;2024-02-21T00:13:06;2.80;;;1.63;;
12585;SDS011;6358;50.760;0.282;2024-02-21T00:15:32;3.07;;;1.70;;
12585;SDS011;6358;50.760;0.282;2024-02-21T00:17:58;3.60;;;1.40;;
12585;SDS011;6358;50.760;0.282;2024-02-21T00:20:24;2.70;;;1.37;;
12585;SDS011;6358;50.760;0.282;2024-02-21T00:22:51;2.17;;;1.37;;
12585;SDS011;6358;50.760;0.282;2024-02-21T00:25:17;2.93;;;1.50;;
12585;SDS011;6358;50.760;0.282;2024-02-21T00:27:43;3.27;;;1.40;;
12585;SDS011;6358;50.760;0.282;2024-02-21T00:30:10;2.87;;;1.57;;
12585;SDS011;6358;50.760;0.282;2024-02-21T00:32:36;5.63;;;1.57;;
12585;SDS011;6358;50.760;0.282;2024-02-21T00:35:02;2.97;;;1.50;;
12585;SDS011;6358;50.760;0.282;2024-02-21T00:37:28;3.50;;;1.70;;
12585;SDS011;6358;50.760;0.282;2024-02-21T00:39:54;3.47;;;1.50;;
12585;SDS011;6358;50.760;0.282;2024-02-21T00:42:20;3.87;;;1.47;;
12585;SDS011;6358;50.760;0.282;2024-02-21T00:44:46;3.53;;;1.60;;
12585;SDS011;6358;50.760;0.282;2024-02-21T00:47:12;2.80;;;1.40;;
12585;SDS011;6358;50.760;0.282;2024-02-21T00:49:39;3.77;;;1.60;;
12585;SDS011;6358;50.760;0.282;2024-02-21T00:52:05;3.63;;;1.47;;
12585;SDS011;6358;50.760;0.282;2024-02-21T00:54:31;2.30;;;1.23;;
12585;SDS011;6358;50.760;0.282;2024-02-21T00:56:57;2.97;;;1.37;;
12585;SDS011;6358;50.760;0.282;2024-02-21T00:59:23;2.43;;;1.17;;
12585;SDS011;6358;50.760;0.282;2024-02-21T01:01:49;4.23;;;1.60;;
12585;SDS011;6358;50.760;0.282;2024-02-21T01:04:15;3.33;;;1.70;;
12585;SDS011;6358;50.760;0.282;2024-02-21T01:06:41;2.57;;;1.60;;
12585;SDS011;6358;50.760;0.282;2024-02-21T01:09:09;2.60;;;1.30;;
12585;SDS011;6358;50.760;0.282;2024-02-21T01:11:35;3.80;;;1.43;;
12585;SDS011;6358;50.760;0.282;2024-02-21T01:14:01;2.37;;;1.30;;
12585;SDS011;6358;50.760;0.282;2024-02-21T01:16:27;4.40;;;1.63;;
12585;SDS011;6358;50.760;0.282;2024-02-21T01:18:53;2.47;;;1.53;;
12585;SDS011;6358;50.760;0.282;2024-02-21T01:21:20;3.30;;;1.60;;
12585;SDS011;6358;50.760;0.282;2024-02-21T01:23:46;2.30;;;1.40;;
12585;SDS011;6358;50.760;0.282;2024-02-21T01:26:12;2.80;;;1.50;;
12585;SDS011;6358;50.760;0.282;2024-02-21T01:28:40;2.17;;;1.20;;
12585;SDS011;6358;50.760;0.282;2024-02-21T01:31:06;3.73;;;1.60;;
12585;SDS011;6358;50.760;0.282;2024-02-21T01:33:32;2.87;;;1.37;;
12585;SDS011;6358;50.760;0.282;2024-02-21T01:36:04;3.23;;;1.30;;
12585;SDS011;6358;50.760;0.282;2024-02-21T01:38:33;2.07;;;1.27;;
12585;SDS011;6358;50.760;0.282;2024-02-21T01:40:59;2.53;;;1.40;;
12585;SDS011;6358;50.760;0.282;2024-02-21T01:43:25;3.20;;;1.40;;
12585;SDS011;6358;50.760;0.282;2024-02-21T01:45:57;3.53;;;1.53;;
12585;SDS011;6358;50.760;0.282;2024-02-21T01:48:24;2.80;;;1.40;;
12585;SDS011;6358;50.760;0.282;2024-02-21T01:50:50;2.50;;;1.27;;
12585;SDS011;6358;50.760;0.282;2024-02-21T01:53:21;3.33;;;1.53;;
12585;SDS011;6358;50.760;0.282;2024-02-21T01:55:47;3.00;;;1.27;;
12585;SDS011;6358;50.760;0.282;2024-02-21T01:58:13;4.60;;;1.40;;
12585;SDS011;6358;50.760;0.282;2024-02-21T02:00:40;3.87;;;1.40;;
12585;SDS011;6358;50.760;0.282;2024-02-21T02:03:09;2.87;;;1.40;;
12585;SDS011;6358;50.760;0.282;2024-02-21T02:05:42;2.53;;;1.40;;
12585;SDS011;6358;50.760;0.282;2024-02-21T02:08:08;2.43;;;1.30;;
12585;SDS011;6358;50.760;0.282;2024-02-21T02:10:34;1.83;;;1.17;;
12585;SDS011;6358;50.760;0.282;2024-02-21T02:13:00;3.00;;;1.50;;
12585;SDS011;6358;50.760;0.282;2024-02-21T02:15:26;2.93;;;1.30;;
12585;SDS011;6358;50.760;0.282;2024-02-21T02:17:52;2.97;;;1.53;;
12585;SDS011;6358;50.760;0.282;2024-02-21T02:20:18;1.73;;;1.13;;
12585;SDS011;6358;50.760;0.282;2024-02-21T02:22:44;2.57;;;1.20;;
12585;SDS011;6358;50.760;0.282;2024-02-21T02:25:11;3.13;;;1.43;;
12585;SDS011;6358;50.760;0.282;2024-02-21T02:27:44;4.13;;;1.27;;
12585;SDS011;6358;50.760;0.282;2024-02-21T02:30:11;2.43;;;1.43;;
12585;SDS011;6358;50.760;0.282;2024-02-21T02:32:37;2.90;;;1.40;;
12585;SDS011;6358;50.760;0.282;2024-02-21T02:35:14;2.60;;;1.37;;
12585;SDS011;6358;50.760;0.282;2024-02-21T02:37:47;2.40;;;1.23;;
12585;SDS011;6358;50.760;0.282;2024-02-21T02:40:13;3.43;;;1.40;;
12585;SDS011;6358;50.760;0.282;2024-02-21T02:42:39;2.73;;;1.37;;
12585;SDS011;6358;50.760;0.282;2024-02-21T02:45:05;1.60;;;1.10;;
12585;SDS011;6358;50.760;0.282;2024-02-21T02:47:32;2.27;;;1.30;;
12585;SDS011;6358;50.760;0.282;2024-02-21T02:49:59;2.27;;;1.00;;
12585;SDS011;6358;50.760;0.282;2024-02-21T02:52:25;3.67;;;1.40;;
12585;SDS011;6358;50.760;0.282;2024-02-21T02:54:51;2.30;;;1.40;;
12585;SDS011;6358;50.760;0.282;2024-02-21T02:57:20;1.63;;;1.07;;
12585;SDS011;6358;50.760;0.282;2024-02-21T02:59:50;3.23;;;1.50;;
12585;SDS011;6358;50.760;0.282;2024-02-21T03:02:16;1.47;;;1.07;;
12585;SDS011;6358;50.760;0.282;2024-02-21T03:04:43;1.50;;;1.13;;
12585;SDS011;6358;50.760;0.282;2024-02-21T03:07:09;1.97;;;1.50;;
12585;SDS011;6358;50.760;0.282;2024-02-21T03:09:38;2.83;;;1.13;;
12585;SDS011;6358;50.760;0.282;2024-02-21T03:12:05;1.47;;;1.00;;
12585;SDS011;6358;50.760;0.282;2024-02-21T03:14:32;2.73;;;1.20;;
12585;SDS011;6358;50.760;0.282;2024-02-21T03:16:58;3.20;;;1.20;;
12585;SDS011;6358;50.760;0.282;2024-02-21T03:19:27;1.77;;;1.20;;
12585;SDS011;6358;50.760;0.282;2024-02-21T03:21:53;3.60;;;1.43;;
12585;SDS011;6358;50.760;0.282;2024-02-21T03:24:20;2.87;;;1.30;;
12585;SDS011;6358;50.760;0.282;2024-02-21T03:26:46;4.10;;;1.30;;
12585;SDS011;6358;50.760;0.282;2024-02-21T03:29:14;2.23;;;1.07;;
12585;SDS011;6358;50.760;0.282;2024-02-21T03:31:40;4.53;;;1.20;;
12585;SDS011;6358;50.760;0.282;2024-02-21T03:34:06;2.27;;;1.30;;
12585;SDS011;6358;50.760;0.282;2024-02-21T03:36:32;1.93;;;1.20;;
12585;SDS011;6358;50.760;0.282;2024-02-21T03:38:58;2.37;;;1.40;;
12585;SDS011;6358;50.760;0.282;2024-02-21T03:41:25;2.37;;;1.30;;
12585;SDS011;6358;50.760;0.282;2024-02-21T03:43:51;2.37;;;1.23;;
12585;SDS011;6358;50.760;0.282;2024-02-21T03:46:17;2.13;;;1.20;;
12585;SDS011;6358;50.760;0.282;2024-02-21T03:48:43;2.03;;;1.03;;
12585;SDS011;6358;50.760;0.282;2024-02-21T03:51:10;1.87;;;1.10;;
12585;SDS011;6358;50.760;0.282;2024-02-21T03:53:36;2.30;;;1.00;;
12585;SDS011;6358;50.760;0.282;2024-02-21T03:56:03;1.50;;;1.17;;
12585;SDS011;6358;50.760;0.282;2024-02-21T03:58:32;2.17;;;1.10;;
12585;SDS011;6358;50.760;0.282;2024-02-21T04:01:02;2.50;;;1.30;;
12585;SDS011;6358;50.760;0.282;2024-02-21T04:03:28;3.00;;;1.20;;
12585;SDS011;6358;50.760;0.282;2024-02-21T04:05:54;1.93;;;1.00;;
12585;SDS011;6358;50.760;0.282;2024-02-21T04:08:20;2.17;;;1.20;;
12585;SDS011;6358;50.760;0.282;2024-02-21T04:10:47;1.80;;;1.17;;
12585;SDS011;6358;50.760;0.282;2024-02-21T04:13:13;1.20;;;1.10;;
12585;SDS011;6358;50.760;0.282;2024-02-21T04:15:39;1.97;;;1.33;;
12585;SDS011;6358;50.760;0.282;2024-02-21T04:18:05;1.57;;;1.20;;
12585;SDS011;6358;50.760;0.282;2024-02-21T04:20:31;2.33;;;1.30;;
12585;SDS011;6358;50.760;0.282;2024-02-21T04:22:57;1.90;;;1.27;;
12585;SDS011;6358;50.760;0.282;2024-02-21T04:25:23;2.13;;;1.10;;
12585;SDS011;6358;50.760;0.282;2024-02-21T04:27:50;2.17;;;0.97;;
12585;SDS011;6358;50.760;0.282;2024-02-21T04:30:16;2.73;;;1.13;;
12585;SDS011;6358;50.760;0.282;2024-02-21T04:32:42;2.33;;;1.10;;
12585;SDS011;6358;50.760;0.282;2024-02-21T04:35:08;2.23;;;1.17;;
12585;SDS011;6358;50.760;0.282;2024-02-21T04:37:34;1.57;;;1.20;;
12585;SDS011;6358;50.760;0.282;2024-02-21T04:40:00;2.20;;;1.40;;
12585;SDS011;6358;50.760;0.282;2024-02-21T04:42:26;3.40;;;1.20;;
12585;SDS011;6358;50.760;0.282;2024-02-21T04:44:52;1.90;;;1.17;;
12585;SDS011;6358;50.760;0.282;2024-02-21T04:47:19;1.43;;;1.00;;
12585;SDS011;6358;50.760;0.282;2024-02-21T04:49:45;2.87;;;1.17;;
12585;SDS011;6358;50.760;0.282;2024-02-21T04:52:11;1.67;;;1.30;;
12585;SDS011;6358;50.760;0.282;2024-02-21T04:54:38;1.60;;;1.10;;
12585;SDS011;6358;50.760;0.282;2024-02-21T04:57:04;2.67;;;1.33;;
12585;SDS011;6358;50.760;0.282;2024-02-21T04:59:30;2.00;;;1.10;;
12585;SDS011;6358;50.760;0.282;2024-02-21T05:01:56;2.80;;;1.20;;
12585;SDS011;6358;50.760;0.282;2024-02-21T05:04:23;1.60;;;1.13;;
12585;SDS011;6358;50.760;0.282;2024-02-21T05:06:49;1.87;;;1.10;;
12585;SDS011;6358;50.760;0.282;2024-02-21T05:09:15;1.30;;;1.10;;
12585;SDS011;6358;50.760;0.282;2024-02-21T05:11:41;2.40;;;1.30;;
12585;SDS011;6358;50.760;0.282;2024-02-21T05:14:08;1.60;;;1.10;;
12585;SDS011;6358;50.760;0.282;2024-02-21T05:16:34;1.77;;;1.10;;
12585;SDS011;6358;50.760;0.282;2024-02-21T05:19:00;0.80;;;0.80;;
12585;SDS011;6358;50.760;0.282;2024-02-21T05:21:26;1.60;;;1.07;;
12585;SDS011;6358;50.760;0.282;2024-02-21T05:23:53;2.63;;;1.30;;
12585;SDS011;6358;50.760;0.282;2024-02-21T05:28:48;2.73;;;1.20;;
12585;SDS011;6358;50.760;0.282;2024-02-21T05:31:17;3.70;;;1.10;;
12585;SDS011;6358;50.760;0.282;2024-02-21T05:33:44;1.90;;;1.30;;
12585;SDS011;6358;50.760;0.282;2024-02-21T05:36:10;2.20;;;1.37;;
12585;SDS011;6358;50.760;0.282;2024-02-21T05:38:37;3.27;;;1.23;;
12585;SDS011;6358;50.760;0.282;2024-02-21T05:41:03;1.30;;;1.10;;
12585;SDS011;6358;50.760;0.282;2024-02-21T05:43:29;2.87;;;1.30;;
12585;SDS011;6358;50.760;0.282;2024-02-21T05:45:55;1.97;;;1.00;;
12585;SDS011;6358;50.760;0.282;2024-02-21T05:48:22;2.20;;;1.13;;
12585;SDS011;6358;50.760;0.282;2024-02-21T05:50:48;1.97;;;1.20;;
12585;SDS011;6358;50.760;0.282;2024-02-21T05:53:14;2.17;;;1.17;;
12585;SDS011;6358;50.760;0.282;2024-02-21T05:55:40;3.10;;;1.40;;
12585;SDS011;6358;50.760;0.282;2024-02-21T05:58:06;1.97;;;1.07;;
12585;SDS011;6358;50.760;0.282;2024-02-21T06:00:35;2.10;;;1.00;;
12585;SDS011;6358;50.760;0.282;2024-02-21T06:03:01;2.33;;;1.00;;
12585;SDS011;6358;50.760;0.282;2024-02-21T06:05:27;1.47;;;1.20;;
12585;SDS011;6358;50.760;0.282;2024-02-21T06:07:53;2.57;;;1.20;;
12585;SDS011;6358;50.760;0.282;2024-02-21T06:10:19;1.77;;;1.00;;
12585;SDS011;6358;50.760;0.282;2024-02-21T06:12:45;1.20;;;1.10;;
12585;SDS011;6358;50.760;0.282;2024-02-21T06:15:11;1.03;;;0.90;;
12585;SDS011;6358;50.760;0.282;2024-02-21T06:17:37;2.37;;;1.20;;
12585;SDS011;6358;50.760;0.282;2024-02-21T06:20:04;1.77;;;1.10;;
12585;SDS011;6358;50.760;0.282;2024-02-21T06:22:30;1.67;;;0.90;;
12585;SDS011;6358;50.760;0.282;2024-02-21T06:24:56;1.80;;;1.10;;
12585;SDS011;6358;50.760;0.282;2024-02-21T06:27:22;3.47;;;1.30;;
12585;SDS011;6358;50.760;0.282;2024-02-21T06:29:49;1.10;;;1.00;;
12585;SDS011;6358;50.760;0.282;2024-02-21T06:32:15;1.40;;;1.13;;
12585;SDS011;6358;50.760;0.282;2024-02-21T06:34:41;2.93;;;0.90;;
12585;SDS011;6358;50.760;0.282;2024-02-21T06:37:08;1.73;;;1.20;;
12585;SDS011;6358;50.760;0.282;2024-02-21T06:39:34;2.40;;;1.20;;
12585;SDS011;6358;50.760;0.282;2024-02-21T06:42:02;1.13;;;0.90;;
12585;SDS011;6358;50.760;0.282;2024-02-21T06:44:29;1.63;;;1.00;;
12585;SDS011;6358;50.760;0.282;2024-02-21T06:46:57;2.03;;;1.20;;
12585;SDS011;6358;50.760;0.282;2024-02-21T06:49:24;2.70;;;1.30;;
12585;SDS011;6358;50.760;0.282;2024-02-21T06:51:50;1.93;;;1.20;;
12585;SDS011;6358;50.760;0.282;2024-02-21T06:54:16;2.10;;;1.30;;
12585;SDS011;6358;50.760;0.282;2024-02-21T06:56:42;1.57;;;1.07;;
12585;SDS011;6358;50.760;0.282;2024-02-21T06:59:08;2.17;;;1.20;;
12585;SDS011;6358;50.760;0.282;2024-02-21T07:01:35;1.60;;;1.10;;
12585;SDS011;6358;50.760;0.282;2024-02-21T07:04:01;3.63;;;1.40;;
12585;SDS011;6358;50.760;0.282;2024-02-21T07:06:27;1.73;;;1.10;;
12585;SDS011;6358;50.760;0.282;2024-02-21T07:08:53;2.10;;;1.50;;
12585;SDS011;6358;50.760;0.282;2024-02-21T07:11:19;2.57;;;1.20;;
12585;SDS011;6358;50.760;0.282;2024-02-21T07:13:45;2.70;;;1.50;;
12585;SDS011;6358;50.760;0.282;2024-02-21T07:16:12;3.47;;;1.50;;
12585;SDS011;6358;50.760;0.282;2024-02-21T07:18:38;2.93;;;1.43;;
12585;SDS011;6358;50.760;0.282;2024-02-21T07:21:04;2.87;;;1.50;;
12585;SDS011;6358;50.760;0.282;2024-02-21T07:23:30;1.57;;;1.10;;
12585;SDS011;6358;50.760;0.282;2024-02-21T07:25:56;2.67;;;1.50;;
12585;SDS011;6358;50.760;0.282;2024-02-21T07:28:22;3.27;;;1.37;;
12585;SDS011;6358;50.760;0.282;2024-02-21T07:30:48;2.27;;;1.40;;
12585;SDS011;6358;50.760;0.282;2024-02-21T07:33:14;2.67;;;1.30;;
12585;SDS011;6358;50.760;0.282;2024-02-21T07:35:40;3.60;;;1.20;;
12585;SDS011;6358;50.760;0.282;2024-02-21T07:38:09;3.60;;;1.50;;
12585;SDS011;6358;50.760;0.282;2024-02-21T07:40:37;2.67;;;1.30;;
12585;SDS011;6358;50.760;0.282;2024-02-21T07:43:04;2.77;;;1.50;;
12585;SDS011;6358;50.760;0.282;2024-02-21T07:45:30;3.23;;;1.60;;
12585;SDS011;6358;50.760;0.282;2024-02-21T07:47:56;2.97;;;1.40;;
12585;SDS011;6358;50.760;0.282;2024-02-21T07:50:22;2.53;;;1.33;;
12585;SDS011;6358;50.760;0.282;2024-02-21T07:52:48;3.33;;;1.60;;
12585;SDS011;6358;50.760;0.282;2024-02-21T07:55:14;3.43;;;1.80;;
12585;SDS011;6358;50.760;0.282;2024-02-21T07:57:40;3.30;;;1.50;;
12585;SDS011;6358;50.760;0.282;2024-02-21T08:00:07;2.47;;;1.40;;
12585;SDS011;6358;50.760;0.282;2024-02-21T08:02:45;2.93;;;1.33;;
12585;SDS011;6358;50.760;0.282;2024-02-21T08:05:11;3.87;;;1.70;;
12585;SDS011;6358;50.760;0.282;2024-02-21T08:07:37;3.27;;;1.70;;
12585;SDS011;6358;50.760;0.282;2024-02-21T08:10:04;6.83;;;1.70;;
12585;SDS011;6358;50.760;0.282;2024-02-21T08:12:32;3.07;;;1.40;;
12585;SDS011;6358;50.760;0.282;2024-02-21T08:14:58;4.80;;;1.67;;
12585;SDS011;6358;50.760;0.282;2024-02-21T08:17:24;3.37;;;1.47;;
12585;SDS011;6358;50.760;0.282;2024-02-21T08:19:50;2.07;;;1.37;;
12585;SDS011;6358;50.760;0.282;2024-02-21T08:22:16;4.20;;;1.80;;
12585;SDS011;6358;50.760;0.282;2024-02-21T08:24:42;3.13;;;1.37;;
12585;SDS011;6358;50.760;0.282;2024-02-21T08:27:08;3.90;;;1.67;;
12585;SDS011;6358;50.760;0.282;2024-02-21T08:29:34;2.77;;;1.40;;
12585;SDS011;6358;50.760;0.282;2024-02-21T08:32:01;2.67;;;1.33;;
12585;SDS011;6358;50.760;0.282;2024-02-21T08:34:27;4.13;;;1.60;;
12585;SDS011;6358;50.760;0.282;2024-02-21T08:36:55;3.83;;;1.50;;
12585;SDS011;6358;50.760;0.282;2024-02-21T08:39:21;2.77;;;1.50;;
12585;SDS011;6358;50.760;0.282;2024-02-21T08:41:47;2.83;;;1.57;;
12585;SDS011;6358;50.760;0.282;2024-02-21T08:44:13;4.17;;;1.53;;
12585;SDS011;6358;50.760;0.282;2024-02-21T08:46:39;3.33;;;1.60;;
12585;SDS011;6358;50.760;0.282;2024-02-21T08:49:06;2.63;;;1.40;;
12585;SDS011;6358;50.760;0.282;2024-02-21T08:51:32;2.93;;;1.73;;
12585;SDS011;6358;50.760;0.282;2024-02-21T08:53:58;7.00;;;3.03;;
12585;SDS011;6358;50.760;0.282;2024-02-21T08:56:26;8.30;;;3.60;;
12585;SDS011;6358;50.760;0.282;2024-02-21T08:58:52;6.73;;;3.70;;
12585;SDS011;6358;50.760;0.282;2024-02-21T09:01:18;7.53;;;3.80;;
12585;SDS011;6358;50.760;0.282;2024-02-21T09:03:46;8.17;;;4.17;;
12585;SDS011;6358;50.760;0.282;2024-02-21T09:06:12;10.20;;;3.80;;
12585;SDS011;6358;50.760;0.282;2024-02-21T09:08:39;6.60;;;3.23;;
12585;SDS011;6358;50.760;0.282;2024-02-21T09:11:05;5.63;;;3.07;;
12585;SDS011;6358;50.760;0.282;2024-02-21T09:13:32;9.80;;;3.80;;
12585;SDS011;6358;50.760;0.282;2024-02-21T09:15:58;8.30;;;3.73;;
12585;SDS011;6358;50.760;0.282;2024-02-21T09:18:24;7.20;;;3.60;;
12585;SDS011;6358;50.760;0.282;2024-02-21T09:20:50;10.33;;;4.93;;
12585;SDS011;6358;50.760;0.282;2024-02-21T09:23:17;12.73;;;5.87;;
12585;SDS011;6358;50.760;0.282;2024-02-21T09:25:44;13.27;;;6.40;;
12585;SDS011;6358;50.760;0.282;2024-02-21T09:28:11;12.53;;;5.77;;
12585;SDS011;6358;50.760;0.282;2024-02-21T09:30:38;11.97;;;5.90;;
12585;SDS011;6358;50.760;0.282;2024-02-21T09:33:04;12.27;;;6.07;;
12585;SDS011;6358;50.760;0.282;2024-02-21T09:35:30;10.20;;;5.30;;
12585;SDS011;6358;50.760;0.282;2024-02-21T09:37:58;12.00;;;6.03;;
12585;SDS011;6358;50.760;0.282;2024-02-21T09:40:24;14.50;;;5.97;;
12585;SDS011;6358;50.760;0.282;2024-02-21T09:42:55;12.00;;;5.03;;
12585;SDS011;6358;50.760;0.282;2024-02-21T09:45:26;9.63;;;5.00;;
12585;SDS011;6358;50.760;0.282;2024-02-21T09:50:38;11.23;;;4.43;;
12585;SDS011;6358;50.760;0.282;2024-02-21T09:53:08;12.57;;;4.60;;
12585;SDS011;6358;50.760;0.282;2024-02-21T09:55:35;8.47;;;4.03;;
12585;SDS011;6358;50.760;0.282;2024-02-21T09:58:05;7.87;;;4.00;;
12585;SDS011;6358;50.760;0.282;2024-02-21T10:00:31;9.83;;;4.03;;
12585;SDS011;6358;50.760;0.282;2024-02-21T10:03:10;6.93;;;3.73;;
12585;SDS011;6358;50.760;0.282;2024-02-21T10:05:38;8.33;;;4.13;;
12585;SDS011;6358;50.760;0.282;2024-02-21T10:08:04;6.73;;;3.50;;
12585;SDS011;6358;50.760;0.282;2024-02-21T10:10:51;10.10;;;3.63;;
12585;SDS011;6358;50.760;0.282;2024-02-21T10:13:27;7.77;;;3.30;;
12585;SDS011;6358;50.760;0.282;2024-02-21T10:16:06;7.50;;;3.17;;
12585;SDS011;6358;50.760;0.282;2024-02-21T10:18:33;7.60;;;3.20;;
12585;SDS011;6358;50.760;0.282;2024-02-21T10:21:02;8.13;;;3.60;;
12585;SDS011;6358;50.760;0.282;2024-02-21T10:23:29;6.57;;;3.03;;
12585;SDS011;6358;50.760;0.282;2024-02-21T10:26:05;7.67;;;2.70;;
12585;SDS011;6358;50.760;0.282;2024-02-21T10:28:31;6.93;;;3.00;;
12585;SDS011;6358;50.760;0.282;2024-02-21T10:30:57;7.67;;;3.30;;
12585;SDS011;6358;50.760;0.282;2024-02-21T10:33:24;6.30;;;3.10;;
12585;SDS011;6358;50.760;0.282;2024-02-21T10:35:52;6.63;;;2.47;;
12585;SDS011;6358;50.760;0.282;2024-02-21T10:38:19;6.00;;;2.90;;
12585;SDS011;6358;50.760;0.282;2024-02-21T10:40:46;6.67;;;3.10;;
12585;SDS011;6358;50.760;0.282;2024-02-21T10:43:13;6.73;;;2.47;;
12585;SDS011;6358;50.760;0.282;2024-02-21T10:45:40;4.93;;;2.53;;
12585;SDS011;6358;50.760;0.282;2024-02-21T10:48:13;4.83;;;2.40;;
12585;SDS011;6358;50.760;0.282;2024-02-21T10:56:21;4.50;;;2.27;;
12585;SDS011;6358;50.760;0.282;2024-02-21T10:58:49;7.97;;;2.67;;
12585;SDS011;6358;50.760;0.282;2024-02-21T11:01:15;6.20;;;2.77;;
12585;SDS011;6358;50.760;0.282;2024-02-21T11:03:43;6.17;;;2.83;;
12585;SDS011;6358;50.760;0.282;2024-02-21T11:06:10;5.37;;;2.40;;
12585;SDS011;6358;50.760;0.282;2024-02-21T11:08:37;4.67;;;2.13;;
12585;SDS011;6358;50.760;0.282;2024-02-21T11:11:04;6.57;;;2.37;;
12585;SDS011;6358;50.760;0.282;2024-02-21T11:13:31;6.00;;;2.57;;
12585;SDS011;6358;50.760;0.282;2024-02-21T11:16:10;5.17;;;2.30;;
12585;SDS011;6358;50.760;0.282;2024-02-21T11:18:39;5.57;;;2.50;;
12585;SDS011;6358;50.760;0.282;2024-02-21T11:21:06;5.07;;;2.60;;
12585;SDS011;6358;50.760;0.282;2024-02-21T11:23:32;6.63;;;2.20;;
12585;SDS011;6358;50.760;0.282;2024-02-21T11:26:05;5.50;;;2.20;;
12585;SDS011;6358;50.760;0.282;2024-02-21T11:28:31;4.87;;;2.37;;
12585;SDS011;6358;50.760;0.282;2024-02-21T11:33:53;7.90;;;2.33;;
12585;SDS011;6358;50.760;0.282;2024-02-21T11:36:26;7.27;;;2.10;;
12585;SDS011;6358;50.760;0.282;2024-02-21T11:38:52;3.07;;;1.90;;
12585;SDS011;6358;50.760;0.282;2024-02-21T11:41:19;5.67;;;2.30;;
12585;SDS011;6358;50.760;0.282;2024-02-21T11:43:48;4.33;;;1.93;;
12585;SDS011;6358;50.760;0.282;2024-02-21T11:46:15;5.57;;;2.33;;
12585;SDS011;6358;50.760;0.282;2024-02-21T11:48:42;4.20;;;2.33;;
12585;SDS011;6358;50.760;0.282;2024-02-21T11:51:12;3.70;;;2.20;;
12585;SDS011;6358;50.760;0.282;2024-02-21T11:53:46;4.07;;;2.00;;
12585;SDS011;6358;50.760;0.282;2024-02-21T11:56:13;5.50;;;2.20;;
12585;SDS011;6358;50.760;0.282;2024-02-21T11:58:39;4.63;;;2.10;;
12585;SDS011;6358;50.760;0.282;2024-02-21T12:01:06;3.63;;;1.90;;
12585;SDS011;6358;50.760;0.282;2024-02-21T12:03:32;5.00;;;2.40;;
12585;SDS011;6358;50.760;0.282;2024-02-21T12:06:00;4.40;;;2.27;;
12585;SDS011;6358;50.760;0.282;2024-02-21T12:08:28;10.13;;;2.30;;
12585;SDS011;6358;50.760;0.282;2024-02-21T12:10:54;4.10;;;2.03;;
12585;SDS011;6358;50.760;0.282;2024-02-21T12:13:22;3.43;;;2.10;;
12585;SDS011;6358;50.760;0.282;2024-02-21T12:15:49;6.20;;;2.37;;
12585;SDS011;6358;50.760;0.282;2024-02-21T12:18:15;6.73;;;2.30;;
12585;SDS011;6358;50.760;0.282;2024-02-21T12:20:42;4.90;;;1.80;;
12585;SDS011;6358;50.760;0.282;2024-02-21T12:23:10;4.43;;;1.90;;
12585;SDS011;6358;50.760;0.282;2024-02-21T12:25:36;5.47;;;2.13;;
12585;SDS011;6358;50.760;0.282;2024-02-21T12:28:02;8.17;;;2.10;;
12585;SDS011;6358;50.760;0.282;2024-02-21T12:30:28;4.97;;;2.10;;
12585;SDS011;6358;50.760;0.282;2024-02-21T12:32:55;5.03;;;2.10;;
12585;SDS011;6358;50.760;0.282;2024-02-21T12:35:23;3.73;;;1.87;;
12585;SDS011;6358;50.760;0.282;2024-02-21T12:37:49;5.20;;;2.30;;
12585;SDS011;6358;50.760;0.282;2024-02-21T12:40:15;3.33;;;1.93;;
12585;SDS011;6358;50.760;0.282;2024-02-21T12:42:42;4.50;;;2.03;;
12585;SDS011;6358;50.760;0.282;2024-02-21T12:45:08;5.70;;;2.40;;
12585;SDS011;6358;50.760;0.282;2024-02-21T12:47:34;3.97;;;2.03;;
12585;SDS011;6358;50.760;0.282;2024-02-21T12:50:00;4.53;;;2.20;;
12585;SDS011;6358;50.760;0.282;2024-02-21T12:52:28;8.20;;;2.47;;
12585;SDS011;6358;50.760;0.282;2024-02-21T12:54:54;3.63;;;1.93;;
12585;SDS011;6358;50.760;0.282;2024-02-21T12:57:23;6.23;;;2.30;;
12585;SDS011;6358;50.760;0.282;2024-02-21T12:59:49;3.40;;;1.70;;
12585;SDS011;6358;50.760;0.282;2024-02-21T13:02:16;8.00;;;2.47;;
12585;SDS011;6358;50.760;0.282;2024-02-21T13:04:42;5.57;;;2.20;;
12585;SDS011;6358;50.760;0.282;2024-02-21T13:07:08;5.37;;;2.37;;
12585;SDS011;6358;50.760;0.282;2024-02-21T13:09:34;5.17;;;2.40;;
12585;SDS011;6358;50.760;0.282;2024-02-21T13:12:00;5.37;;;2.20;;
12585;SDS011;6358;50.760;0.282;2024-02-21T13:14:27;6.10;;;2.27;;
12585;SDS011;6358;50.760;0.282;2024-02-21T13:16:53;6.57;;;2.20;;
12585;SDS011;6358;50.760;0.282;2024-02-21T13:19:19;4.40;;;1.87;;
12585;SDS011;6358;50.760;0.282;2024-02-21T13:21:45;6.77;;;2.57;;
12585;SDS011;6358;50.760;0.282;2024-02-21T13:24:11;6.10;;;2.33;;
12585;SDS011;6358;50.760;0.282;2024-02-21T13:26:38;7.47;;;2.90;;
12585;SDS011;6358;50.760;0.282;2024-02-21T13:29:04;3.27;;;1.73;;
12585;SDS011;6358;50.760;0.282;2024-02-21T13:31:30;8.10;;;2.87;;
12585;SDS011;6358;50.760;0.282;2024-02-21T13:33:56;5.10;;;2.30;;
12585;SDS011;6358;50.760;0.282;2024-02-21T13:36:22;6.27;;;2.13;;
12585;SDS011;6358;50.760;0.282;2024-02-21T13:38:48;5.00;;;2.20;;
12585;SDS011;6358;50.760;0.282;2024-02-21T13:41:16;5.70;;;2.47;;
12585;SDS011;6358;50.760;0.282;2024-02-21T13:43:42;6.77;;;2.60;;
12585;SDS011;6358;50.760;0.282;2024-02-21T13:46:08;5.13;;;2.10;;
12585;SDS011;6358;50.760;0.282;2024-02-21T13:48:36;6.57;;;2.60;;
12585;SDS011;6358;50.760;0.282;2024-02-21T13:51:02;6.73;;;2.43;;
12585;SDS011;6358;50.760;0.282;2024-02-21T13:53:28;4.80;;;2.60;;
12585;SDS011;6358;50.760;0.282;2024-02-21T13:55:54;3.60;;;2.00;;
12585;SDS011;6358;50.760;0.282;2024-02-21T13:58:20;6.33;;;2.30;;
12585;SDS011;6358;50.760;0.282;2024-02-21T14:00:47;4.70;;;2.20;;
12585;SDS011;6358;50.760;0.282;2024-02-21T14:03:13;6.87;;;2.10;;
12585;SDS011;6358;50.760;0.282;2024-02-21T14:05:39;5.57;;;2.53;;
12585;SDS011;6358;50.760;0.282;2024-02-21T14:08:06;4.33;;;2.27;;
12585;SDS011;6358;50.760;0.282;2024-02-21T14:10:32;6.63;;;2.60;;
12585;SDS011;6358;50.760;0.282;2024-02-21T14:12:59;6.37;;;2.23;;
12585;SDS011;6358;50.760;0.282;2024-02-21T14:15:25;4.57;;;2.00;;
12585;SDS011;6358;50.760;0.282;2024-02-21T14:17:51;5.60;;;2.30;;
12585;SDS011;6358;50.760;0.282;2024-02-21T14:20:17;5.30;;;2.20;;
12585;SDS011;6358;50.760;0.282;2024-02-21T14:22:43;4.87;;;2.20;;
12585;SDS011;6358;50.760;0.282;2024-02-21T14:25:09;3.97;;;2.10;;
12585;SDS011;6358;50.760;0.282;2024-02-21T14:27:36;4.87;;;1.97;;
12585;SDS011;6358;50.760;0.282;2024-02-21T14:30:02;5.73;;;2.20;;
12585;SDS011;6358;50.760;0.282;2024-02-21T14:32:28;4.20;;;2.00;;
12585;SDS011;6358;50.760;0.282;2024-02-21T14:34:54;5.57;;;2.07;;
12585;SDS011;6358;50.760;0.282;2024-02-21T14:37:20;5.30;;;2.13;;
12585;SDS011;6358;50.760;0.282;2024-02-21T14:39:47;4.83;;;2.07;;
12585;SDS011;6358;50.760;0.282;2024-02-21T14:42:13;4.53;;;2.20;;
12585;SDS011;6358;50.760;0.282;2024-02-21T14:44:39;5.33;;;2.53;;
12585;SDS011;6358;50.760;0.282;2024-02-21T14:47:06;10.43;;;2.57;;
12585;SDS011;6358;50.760;0.282;2024-02-21T14:49:32;14.23;;;3.33;;
12585;SDS011;6358;50.760;0.282;2024-02-21T14:51:58;8.57;;;2.40;;
12585;SDS011;6358;50.760;0.282;2024-02-21T14:54:24;6.30;;;2.30;;
12585;SDS011;6358;50.760;0.282;2024-02-21T14:56:51;8.33;;;2.47;;
12585;SDS011;6358;50.760;0.282;2024-02-21T14:59:17;7.93;;;2.20;;
12585;SDS011;6358;50.760;0.282;2024-02-21T15:01:43;8.70;;;2.40;;
12585;SDS011;6358;50.760;0.282;2024-02-21T15:04:09;8.30;;;2.13;;
12585;SDS011;6358;50.760;0.282;2024-02-21T15:06:35;6.07;;;2.03;;
12585;SDS011;6358;50.760;0.282;2024-02-21T15:09:02;8.50;;;2.70;;
12585;SDS011;6358;50.760;0.282;2024-02-21T15:11:29;11.97;;;2.40;;